Main page
METAR-TAF:

METAR-TAF

Airports :

Bétera-Valencia

Valencia, Spain

latitude: 39-37-26N, longitude: 0-28-26W, elevation: 127 m

Current weather observation

The report was made 38 minutes ago, at 19:30 UTC
Wind 4 kt from the North
Temperature 6°C
Humidity 87%
Pressure 1027 hPa
Visibility 10 km or more
Few clouds at a height of 2800 ft
Broken clouds at a height of 3600 ft

METAR: LEBT 211930Z AUTO 36004KT 9999 FEW028 BKN036 06/04 Q1027

Time: 21:08 (20:08 UTC)


TAF: missing

Weather observations and forecasts of more than 4000 airports (METAR and TAF reports).

The available stations are represented by yellow and red dots on the map.

Hover mouse over dot to see the name of the station.

Then click to see weather observations and forecasts.

To change the map : click on the green buttons with a black cross to zoom in, on the green button with a dash to zoom out, or on the green arrows for adjacent maps.


METAR-TAF: